Time;durP1;ratioP1;P1;durP2;ratioP2;P2;SDS_P1;SDS_P2;PMS_P1;PMS_P2;Temp;Humidity;BMP_temperature;BMP_pressure;BME280_temperature;BME280_humidity;BME280_pressure;Samples;Min_cycle;Max_cycle;Signal;HPM_P1;HPM_P2
2021/10/28 00:12:13;;;;;;;22.33;15.95;;;;;;;8.35;82.40;96299.50;5070802;28;20040;-50
2021/10/28 00:14:42;;;;;;;23.50;16.35;;;;;;;8.72;80.99;96301.00;5070178;28;20043;-47
2021/10/28 00:17:16;;;;;;;26.90;17.95;;;;;;;8.66;81.15;96294.94;5056189;28;20061;-48
2021/10/28 00:19:44;;;;;;;21.88;16.60;;;;;;;8.71;80.88;96293.22;5058785;28;20573;-48
2021/10/28 00:22:12;;;;;;;27.10;17.83;;;;;;;8.83;80.93;96293.41;5070671;28;20046;-49
2021/10/28 00:24:40;;;;;;;26.60;17.85;;;;;;;8.85;80.74;96291.22;5056258;28;20132;-50
2021/10/28 00:27:08;;;;;;;22.73;17.35;;;;;;;8.80;80.61;96288.66;5052451;28;20045;-53
2021/10/28 00:29:36;;;;;;;22.58;17.67;;;;;;;8.79;81.03;96289.75;5051522;28;20044;-51
2021/10/28 00:32:07;;;;;;;20.67;16.42;;;;;;;8.69;81.51;96296.22;5053499;28;20072;-51
2021/10/28 00:34:34;;;;;;;29.05;17.92;;;;;;;9.07;79.68;96290.34;5052756;28;20041;-48
2021/10/28 00:37:00;;;;;;;19.63;16.02;;;;;;;8.49;81.15;96297.56;5051359;28;20049;-48
2021/10/28 00:39:27;;;;;;;19.67;15.55;;;;;;;8.71;80.87;96296.72;5054824;28;20469;-52
2021/10/28 00:41:54;;;;;;;24.13;16.80;;;;;;;8.70;80.75;96292.41;5070608;28;20126;-47
2021/10/28 00:44:21;;;;;;;23.73;16.75;;;;;;;8.71;80.76;96283.22;5069883;28;20041;-47
2021/10/28 00:46:48;;;;;;;22.55;16.77;;;;;;;8.86;80.40;96298.19;5060384;28;20135;-47
2021/10/28 00:49:16;;;;;;;21.98;17.65;;;;;;;8.55;80.75;96288.25;5066067;28;20068;-50
2021/10/28 00:51:43;;;;;;;21.00;16.92;;;;;;;8.62;80.39;96298.59;5061441;28;20037;-48
2021/10/28 00:54:18;;;;;;;21.48;15.25;;;;;;;8.56;80.50;96295.22;5057087;28;20128;-47
2021/10/28 00:56:45;;;;;;;28.65;16.88;;;;;;;8.82;79.80;96302.63;5062859;28;20044;-49
2021/10/28 00:59:12;;;;;;;20.65;16.27;;;;;;;8.69;79.97;96298.94;5055579;28;20075;-49
2021/10/28 01:01:40;;;;;;;20.33;15.68;;;;;;;8.74;80.15;96289.88;5055098;28;20398;-47
2021/10/28 01:04:08;;;;;;;23.23;16.48;;;;;;;8.82;79.66;96292.63;5054782;28;20076;-47
2021/10/28 01:06:38;;;;;;;26.92;17.23;;;;;;;8.93;79.07;96292.34;5055615;28;20075;-49
2021/10/28 01:09:06;;;;;;;22.92;17.05;;;;;;;8.95;79.12;96285.53;5068096;28;20045;-48
2021/10/28 01:11:33;;;;;;;20.90;16.30;;;;;;;8.59;79.89;96288.41;5064852;28;20086;-48
2021/10/28 01:14:00;;;;;;;24.42;16.00;;;;;;;8.64;79.73;96281.00;5055731;28;20048;-47
2021/10/28 01:16:28;;;;;;;21.42;16.42;;;;;;;8.66;79.52;96276.06;5060522;28;20041;-48
2021/10/28 01:18:55;;;;;;;22.00;15.73;;;;;;;8.71;79.09;96288.63;5055631;28;20105;-47
2021/10/28 01:21:23;;;;;;;22.00;16.27;;;;;;;8.59;79.84;96283.03;5086233;28;20041;-52
2021/10/28 01:23:50;;;;;;;52.38;16.45;;;;;;;8.63;79.67;96276.69;5064712;28;20049;-47
2021/10/28 01:26:18;;;;;;;23.08;15.85;;;;;;;8.79;78.57;96279.75;5061023;28;20052;-47
2021/10/28 01:28:51;;;;;;;23.42;15.23;;;;;;;8.56;79.72;96286.34;5087493;22;20074;-46
2021/10/28 01:31:21;;;;;;;19.77;15.88;;;;;;;8.63;79.64;96292.06;5072434;28;20128;-50
2021/10/28 01:33:49;;;;;;;23.70;16.05;;;;;;;8.57;79.70;96280.63;5073498;28;20140;-49
2021/10/28 01:36:17;;;;;;;23.23;16.38;;;;;;;8.65;79.52;96269.09;5073637;28;20071;-47
2021/10/28 01:38:45;;;;;;;19.08;15.13;;;;;;;8.18;81.53;96282.13;5070204;28;20143;-48
2021/10/28 01:41:13;;;;;;;18.52;14.88;;;;;;;8.40;81.17;96275.16;5068374;28;20051;-50
2021/10/28 01:43:41;;;;;;;20.52;15.63;;;;;;;8.42;80.57;96272.94;5072920;28;20324;-49
2021/10/28 01:46:09;;;;;;;18.67;14.57;;;;;;;8.17;81.79;96272.44;5073315;28;20051;-48
2021/10/28 01:48:41;;;;;;;26.00;15.38;;;;;;;8.53;80.15;96276.94;5068289;28;20524;-50
2021/10/28 01:51:09;;;;;;;21.77;15.30;;;;;;;8.55;79.77;96269.34;5059923;28;20049;-51
2021/10/28 01:53:41;;;;;;;18.65;13.93;;;;;;;8.29;80.73;96268.41;5073439;28;20127;-48
2021/10/28 01:56:09;;;;;;;19.83;15.02;;;;;;;8.33;80.87;96269.38;5073388;28;20068;-49
2021/10/28 01:58:36;;;;;;;17.65;14.55;;;;;;;8.12;81.11;96264.47;5069907;28;20041;-46
2021/10/28 02:01:07;;;;;;;23.98;15.43;;;;;;;7.54;84.01;96270.75;5070505;28;20043;-49
2021/10/28 02:03:34;;;;;;;15.95;13.48;;;;;;;7.65;84.17;96268.59;5071521;28;20049;-49
2021/10/28 02:06:02;;;;;;;26.38;14.57;;;;;;;8.07;82.33;96270.00;5071997;28;20036;-49
2021/10/28 02:08:29;;;;;;;16.80;13.98;;;;;;;7.96;82.47;96265.97;5065072;28;20067;-51
2021/10/28 02:10:56;;;;;;;18.60;15.15;;;;;;;8.22;81.65;96270.72;5072411;28;20409;-46
2021/10/28 02:13:26;;;;;;;18.83;14.85;;;;;;;8.22;80.99;96274.22;5071783;28;20090;-46
2021/10/28 02:15:53;;;;;;;18.30;14.07;;;;;;;8.13;81.77;96276.09;5071702;28;20053;-46
2021/10/28 02:18:20;;;;;;;17.63;14.50;;;;;;;8.33;81.11;96280.16;5072680;28;20143;-49
2021/10/28 02:20:47;;;;;;;20.27;15.75;;;;;;;8.48;80.29;96279.78;5072992;28;20135;-50
2021/10/28 02:23:14;;;;;;;21.60;15.55;;;;;;;8.53;80.15;96287.75;5071388;28;20052;-52
2021/10/28 02:25:41;;;;;;;22.67;16.15;;;;;;;8.47;80.18;96275.50;5070445;28;20037;-47
2021/10/28 02:28:08;;;;;;;21.25;15.20;;;;;;;8.45;81.05;96282.28;5063477;28;20040;-51
2021/10/28 02:30:36;;;;;;;24.65;15.35;;;;;;;8.48;80.67;96282.47;5064497;28;20422;-47
2021/10/28 02:33:03;;;;;;;20.30;15.32;;;;;;;8.45;80.74;96285.81;5053391;28;20037;-50
2021/10/28 02:35:30;;;;;;;23.80;16.13;;;;;;;8.56;79.94;96279.03;5053826;28;20048;-51
2021/10/28 02:37:57;;;;;;;54.83;17.13;;;;;;;8.50;80.85;96274.88;5066174;28;20454;-48
2021/10/28 02:40:28;;;;;;;24.80;18.00;;;;;;;8.48;81.28;96273.59;5069602;28;20053;-50
2021/10/28 02:42:55;;;;;;;26.25;17.60;;;;;;;8.71;79.98;96283.22;5070826;28;20040;-48
2021/10/28 02:45:22;;;;;;;21.52;16.08;;;;;;;8.24;81.35;96277.41;5054363;28;20098;-49
2021/10/28 02:47:50;;;;;;;18.88;14.90;;;;;;;7.30;85.18;96280.97;5065782;28;20412;-52
2021/10/28 02:50:18;;;;;;;18.67;14.65;;;;;;;6.82;87.77;96282.19;5069928;28;20063;-48
2021/10/28 02:52:46;;;;;;;18.08;13.95;;;;;;;6.65;89.26;96290.06;5071668;28;20445;-50
2021/10/28 02:55:14;;;;;;;27.88;15.65;;;;;;;7.21;87.40;96284.38;5053391;28;20056;-46
2021/10/28 02:57:42;;;;;;;20.00;14.32;;;;;;;7.15;87.10;96284.75;5073266;28;20052;-49
2021/10/28 03:00:10;;;;;;;20.98;15.05;;;;;;;7.48;86.04;96283.53;5066234;28;20422;-51
2021/10/28 03:02:37;;;;;;;21.27;15.75;;;;;;;7.85;84.01;96286.19;5053139;28;20071;-52
2021/10/28 03:05:05;;;;;;;19.83;15.18;;;;;;;8.01;83.15;96273.94;5065556;28;20127;-46
2021/10/28 03:07:34;;;;;;;69.78;18.63;;;;;;;8.28;81.51;96277.59;5072902;28;20429;-46
2021/10/28 03:10:03;;;;;;;35.08;17.73;;;;;;;8.10;82.32;96282.88;5047293;28;20047;-47
2021/10/28 03:12:30;;;;;;;22.52;17.15;;;;;;;7.80;83.13;96286.28;5052985;28;20128;-50
2021/10/28 03:15:01;;;;;;;23.25;15.73;;;;;;;7.35;84.96;96281.66;5065801;28;20044;-50
2021/10/28 03:17:40;;;;;;;21.27;15.48;;;;;;;6.84;87.79;96284.59;5071641;28;20444;-47
2021/10/28 03:28:02;;;;;;;21.50;14.45;;;;;;;6.60;89.23;96280.22;5071257;28;20041;-48
2021/10/28 03:30:30;;;;;;;23.85;15.73;;;;;;;6.70;88.86;96277.34;5061796;28;20127;-46
2021/10/28 03:32:59;;;;;;;23.58;16.10;;;;;;;6.47;89.92;96272.94;5053214;28;20040;-47
2021/10/28 03:35:27;;;;;;;23.23;16.38;;;;;;;6.77;88.24;96285.00;5071127;28;20059;-50
2021/10/28 03:38:02;;;;;;;25.25;15.60;;;;;;;6.37;90.35;96283.84;5071873;28;20055;-50
2021/10/28 03:40:51;;;;;;;22.42;16.23;;;;;;;6.09;91.66;96279.22;5057759;28;20053;-48
2021/10/28 03:54:15;;;;;;;24.17;15.15;;;;;;;6.02;92.71;96294.16;5071976;28;20139;-45
2021/10/28 04:21:00;;;;;;;23.75;15.57;;;;;;;7.13;86.98;96292.34;5071321;28;20129;-50
2021/10/28 04:29:09;;;;;;;23.30;15.88;;;;;;;6.34;92.46;96290.66;5038312;28;20100;-46
2021/10/28 04:31:36;;;;;;;24.38;15.70;;;;;;;6.22;94.02;96290.31;5054921;28;20111;-47
2021/10/28 04:34:08;;;;;;;20.30;14.02;;;;;;;6.61;92.62;96291.78;5067827;28;20036;-47
2021/10/28 04:36:35;;;;;;;24.63;15.90;;;;;;;6.64;90.48;96291.19;5070428;28;20055;-52
2021/10/28 04:39:07;;;;;;;18.90;13.93;;;;;;;6.06;93.17;96287.09;5068965;28;20045;-47
2021/10/28 04:41:36;;;;;;;25.08;15.50;;;;;;;5.98;93.87;96290.44;5060687;28;20501;-47
2021/10/28 04:44:06;;;;;;;21.48;14.93;;;;;;;5.83;94.62;96289.56;5071131;28;20040;-50
2021/10/28 04:46:34;;;;;;;24.05;14.80;;;;;;;5.72;95.75;96290.00;5070792;28;20135;-47
2021/10/28 04:49:01;;;;;;;21.10;14.95;;;;;;;5.67;96.04;96290.09;5066465;28;20121;-48
2021/10/28 04:51:28;;;;;;;20.80;14.68;;;;;;;5.62;96.33;96278.34;5070739;28;20383;-49
2021/10/28 04:53:54;;;;;;;21.30;13.95;;;;;;;5.52;96.32;96286.53;5071194;28;20041;-47
2021/10/28 04:56:21;;;;;;;18.85;13.80;;;;;;;5.47;96.42;96283.94;5062221;28;20127;-53
2021/10/28 04:58:48;;;;;;;20.63;13.20;;;;;;;5.49;96.76;96283.63;5070166;28;20051;-48
2021/10/28 05:01:16;;;;;;;24.05;14.63;;;;;;;5.79;95.35;96282.41;5061117;28;20044;-52
2021/10/28 05:03:43;;;;;;;19.00;13.75;;;;;;;5.75;94.65;96282.19;5069053;28;20051;-47
2021/10/28 05:06:12;;;;;;;19.02;13.40;;;;;;;5.76;94.44;96282.97;5067729;28;20061;-49
2021/10/28 05:08:39;;;;;;;18.20;13.43;;;;;;;5.63;94.81;96268.41;5066613;28;20052;-47
2021/10/28 05:11:06;;;;;;;20.55;15.43;;;;;;;5.59;95.57;96288.88;5056985;28;20052;-51
2021/10/28 05:13:33;;;;;;;20.55;14.60;;;;;;;5.46;96.70;96285.03;5056389;28;20051;-48
2021/10/28 05:16:00;;;;;;;20.35;13.43;;;;;;;5.62;96.81;96283.72;5068694;28;20095;-46
2021/10/28 05:18:28;;;;;;;22.33;14.70;;;;;;;5.73;95.89;96284.34;5054006;28;20076;-49
2021/10/28 05:20:55;;;;;;;19.70;14.48;;;;;;;5.74;95.55;96282.47;5063914;28;20045;-48
2021/10/28 05:23:22;;;;;;;28.23;15.00;;;;;;;6.09;94.74;96281.13;5069231;28;20408;-48
2021/10/28 05:25:50;;;;;;;22.73;14.38;;;;;;;6.04;93.85;96278.50;5071042;28;20058;-50
2021/10/28 05:28:17;;;;;;;20.63;14.55;;;;;;;5.83;95.75;96278.03;5066099;28;20059;-50
2021/10/28 05:30:44;;;;;;;24.10;15.48;;;;;;;5.61;97.17;96289.38;5062093;28;20478;-47
2021/10/28 05:33:14;;;;;;;23.67;15.57;;;;;;;5.85;96.10;96287.41;5069635;28;20155;-49
2021/10/28 05:35:42;;;;;;;23.13;16.23;;;;;;;6.08;96.08;96277.66;5069942;28;20071;-52
2021/10/28 05:38:09;;;;;;;51.92;17.48;;;;;;;6.11;95.27;96283.50;5070064;28;20134;-51
2021/10/28 05:40:36;;;;;;;24.83;15.95;;;;;;;5.95;95.93;96283.78;5055758;28;20047;-50
2021/10/28 05:43:03;;;;;;;20.10;14.60;;;;;;;6.49;93.43;96284.19;5069185;28;20051;-54
2021/10/28 05:45:32;;;;;;;25.20;15.57;;;;;;;6.25;94.67;96285.16;5058807;28;20127;-51
2021/10/28 05:48:00;;;;;;;23.10;15.73;;;;;;;6.21;94.95;96278.78;5072184;28;20040;-50
2021/10/28 05:50:28;;;;;;;22.85;15.65;;;;;;;6.10;95.15;96282.72;5072929;28;20448;-47
2021/10/28 05:52:58;;;;;;;21.83;15.32;;;;;;;6.16;95.19;96281.53;5059085;28;20051;-47
2021/10/28 05:55:26;;;;;;;29.25;16.02;;;;;;;6.47;93.01;96283.69;5071540;28;20041;-53
2021/10/28 05:57:54;;;;;;;26.65;16.02;;;;;;;6.41;93.39;96282.19;5070162;28;20037;-50
2021/10/28 06:00:23;;;;;;;23.10;15.38;;;;;;;6.44;93.35;96284.28;5067268;28;20044;-53
2021/10/28 06:02:50;;;;;;;25.40;17.23;;;;;;;6.95;91.94;96283.28;5068817;28;20040;-50
2021/10/28 06:05:18;;;;;;;25.80;17.10;;;;;;;6.74;92.20;96289.09;5088397;28;20094;-50
2021/10/28 06:07:46;;;;;;;25.85;15.60;;;;;;;6.91;92.02;96285.00;5071914;28;20119;-53
2021/10/28 06:10:19;;;;;;;23.77;15.90;;;;;;;6.99;91.50;96282.41;5066354;28;20052;-49
2021/10/28 06:12:49;;;;;;;26.10;16.93;;;;;;;6.80;92.04;96281.72;5067351;28;20044;-52
2021/10/28 06:15:17;;;;;;;23.73;16.13;;;;;;;6.65;92.88;96282.81;5073714;28;20277;-50
2021/10/28 06:17:57;;;;;;;24.20;17.13;;;;;;;6.38;94.65;96288.94;5065377;28;20045;-53
2021/10/28 06:20:24;;;;;;;26.55;16.67;;;;;;;6.56;94.40;96287.28;5063024;28;20047;-53
2021/10/28 06:22:52;;;;;;;23.15;15.45;;;;;;;6.65;94.01;96285.50;5071461;28;20068;-54
2021/10/28 06:25:20;;;;;;;23.40;15.27;;;;;;;6.61;94.38;96289.09;5054729;28;20079;-51
2021/10/28 06:27:48;;;;;;;21.25;15.00;;;;;;;6.74;93.51;96291.78;5067356;28;20037;-51
2021/10/28 06:30:15;;;;;;;28.10;17.30;;;;;;;7.48;89.03;96288.91;5066736;28;20096;-53
2021/10/28 06:32:49;;;;;;;24.00;16.30;;;;;;;7.69;87.58;96294.59;5064511;28;20120;-54
2021/10/28 06:35:17;;;;;;;23.73;16.85;;;;;;;7.24;89.83;96289.13;5058888;28;20143;-51
2021/10/28 06:37:48;;;;;;;29.05;16.00;;;;;;;7.34;89.46;96300.78;5070884;28;20051;-52
2021/10/28 06:40:19;;;;;;;23.60;16.27;;;;;;;6.83;91.90;96299.94;5061362;28;20571;-51
2021/10/28 06:42:46;;;;;;;24.90;16.40;;;;;;;6.44;93.64;96297.72;5071189;28;20040;-49
2021/10/28 06:45:15;;;;;;;25.92;16.85;;;;;;;6.23;95.20;96302.66;5070801;28;20076;-51
2021/10/28 06:47:42;;;;;;;24.15;15.55;;;;;;;6.14;96.23;96296.34;5069264;28;20123;-49
2021/10/28 06:50:12;;;;;;;24.17;15.38;;;;;;;6.11;96.64;96289.69;5072466;28;20425;-55
2021/10/28 06:52:55;;;;;;;23.00;15.10;;;;;;;6.05;96.56;96299.72;5070128;28;20093;-50
2021/10/28 07:03:27;;;;;;;26.42;16.60;;;;;;;6.15;96.02;96297.97;5080010;28;20059;-51
2021/10/28 07:05:57;;;;;;;23.15;15.45;;;;;;;6.08;96.25;96307.19;5068272;28;20043;-52
2021/10/28 07:08:24;;;;;;;23.05;15.95;;;;;;;6.24;96.12;96296.16;5060286;28;20123;-52
2021/10/28 07:10:54;;;;;;;28.25;18.70;;;;;;;6.76;93.28;96299.56;5066535;28;20071;-47
2021/10/28 07:13:27;;;;;;;23.65;15.75;;;;;;;7.11;91.02;96298.03;5071478;28;20469;-49
2021/10/28 07:16:44;;;;;;;26.00;17.05;;;;;;;7.04;90.29;96297.63;5072916;28;20071;-53
2021/10/28 07:22:12;;;;;;;22.10;15.55;;;;;;;7.22;90.55;96298.63;5064117;28;20037;-48
2021/10/28 07:57:20;;;;;;;31.73;20.05;;;;;;;7.59;88.18;96278.69;5071835;28;20047;-51
2021/10/28 08:19:07;;;;;;;25.55;17.73;;;;;;;7.28;90.49;96275.91;5056427;28;20487;-49
2021/10/28 08:21:41;;;;;;;26.27;17.08;;;;;;;7.11;90.60;96273.00;5065268;28;20044;-47
2021/10/28 08:29:34;;;;;;;26.80;17.20;;;;;;;7.57;87.61;96262.06;5059411;28;20086;-48
2021/10/28 08:32:05;;;;;;;23.27;16.02;;;;;;;6.96;89.99;96266.06;5064262;28;20413;-48
2021/10/28 08:34:35;;;;;;;27.55;16.17;;;;;;;7.06;90.41;96260.47;5068479;28;20040;-50
2021/10/28 08:37:13;;;;;;;23.77;16.63;;;;;;;7.35;88.63;96256.63;5070086;28;20045;-49
2021/10/28 08:39:46;;;;;;;22.73;16.20;;;;;;;7.61;87.83;96256.84;5064287;28;20493;-51
2021/10/28 08:42:16;;;;;;;25.08;15.43;;;;;;;7.45;88.20;96253.72;5070557;28;20090;-49
2021/10/28 08:44:50;;;;;;;28.05;18.88;;;;;;;7.71;86.25;96260.09;5069431;28;20041;-45
2021/10/28 08:47:17;;;;;;;28.05;18.52;;;;;;;7.63;86.55;96247.34;5067412;28;20119;-47
2021/10/28 08:49:57;;;;;;;29.58;19.63;;;;;;;7.47;86.96;96243.41;5061858;28;20081;-52
2021/10/28 08:55:20;;;;;;;26.05;18.70;;;;;;;7.76;87.34;96237.63;5050604;28;20468;-50
2021/10/28 09:26:28;;;;;;;27.25;16.35;;;;;;;7.75;85.50;96240.63;5063341;28;20048;-44
2021/10/28 09:29:17;;;;;;;22.90;16.45;;;;;;;7.53;86.21;96239.50;5070885;28;20933;-44
2021/10/28 09:51:13;;;;;;;27.52;18.48;;;;;;;8.67;80.90;96209.41;5071825;28;20398;-53
2021/10/28 09:59:41;;;;;;;21.75;16.88;;;;;;;8.54;83.52;96211.13;5072616;28;20041;-45
2021/10/28 10:02:37;;;;;;;21.60;17.05;;;;;;;8.64;82.79;96210.84;5066473;28;20139;-49
2021/10/28 10:05:14;;;;;;;30.13;16.40;;;;;;;8.90;81.90;96199.31;5070763;28;20094;-49
2021/10/28 10:07:45;;;;;;;23.20;16.20;;;;;;;9.09;81.86;96210.63;5074426;28;20080;-45
2021/10/28 10:10:20;;;;;;;23.75;15.55;;;;;;;8.98;81.65;96205.84;5064826;28;20040;-51
2021/10/28 10:12:48;;;;;;;19.92;15.30;;;;;;;9.03;81.85;96203.78;5063135;28;20139;-47
2021/10/28 10:15:16;;;;;;;26.77;17.92;;;;;;;9.18;81.62;96205.25;5072489;28;20489;-46
2021/10/28 10:18:03;;;;;;;20.35;16.55;;;;;;;9.29;81.04;96198.41;5072357;28;20127;-46
2021/10/28 10:20:45;;;;;;;19.92;15.23;;;;;;;9.48;80.33;96203.50;5072799;28;20131;-47
2021/10/28 11:30:54;;;;;;;23.50;17.95;;;;;;;12.78;65.35;96138.16;5069928;28;20064;-53
2021/10/28 13:58:20;;;;;;;18.52;13.43;;;;;;;12.94;68.66;96018.75;5069920;28;20504;-51
2021/10/28 15:02:11;;;;;;;16.33;12.52;;;;;;;12.30;71.54;95977.75;5065925;28;20039;-52
2021/10/28 15:28:57;;;;;;;15.75;12.43;;;;;;;12.01;73.86;95964.44;5074808;28;20044;-50
2021/10/28 15:34:24;;;;;;;16.35;12.50;;;;;;;12.01;73.83;95965.25;5072607;28;20052;-52
2021/10/28 15:55:48;;;;;;;16.13;13.05;;;;;;;11.82;75.74;95965.00;5056050;28;20033;-51
2021/10/28 16:23:20;;;;;;;17.40;14.13;;;;;;;11.53;77.14;95957.84;5065558;28;20040;-51
2021/10/28 16:25:47;;;;;;;16.58;13.07;;;;;;;11.56;76.97;95959.91;5065941;28;20042;-49
2021/10/28 16:28:18;;;;;;;16.92;13.43;;;;;;;11.49;77.00;95959.66;5065686;28;20524;-51
2021/10/28 16:30:46;;;;;;;18.38;14.13;;;;;;;11.55;76.53;95950.97;5063417;28;20040;-55
2021/10/28 16:33:14;;;;;;;18.02;14.23;;;;;;;11.41;77.29;95950.53;5058289;28;20055;-50
2021/10/28 16:35:43;;;;;;;17.52;13.57;;;;;;;11.36;77.49;95951.53;5061205;28;20044;-51
2021/10/28 16:38:10;;;;;;;16.35;12.98;;;;;;;11.41;77.37;95953.25;5058792;28;20478;-53
2021/10/28 16:40:38;;;;;;;16.27;13.18;;;;;;;11.40;77.29;95957.84;5066865;28;20043;-51
2021/10/28 16:43:06;;;;;;;15.80;13.32;;;;;;;11.21;77.70;95958.41;5053027;28;20131;-50
2021/10/28 16:45:36;;;;;;;18.20;13.75;;;;;;;11.34;77.29;95961.91;5059576;28;20523;-52
2021/10/28 16:48:07;;;;;;;16.17;13.43;;;;;;;11.10;78.25;95957.22;5061013;28;20040;-52
2021/10/28 16:50:35;;;;;;;17.60;14.85;;;;;;;11.01;78.42;95953.81;5067704;28;20140;-51
2021/10/28 16:53:04;;;;;;;17.50;14.55;;;;;;;11.24;77.58;95962.31;5063792;28;20044;-51
2021/10/28 16:55:51;;;;;;;16.65;13.90;;;;;;;11.17;77.37;95956.69;5066135;28;20043;-53
2021/10/28 16:58:18;;;;;;;17.80;13.68;;;;;;;11.18;77.28;95961.78;5062172;28;20131;-55
2021/10/28 17:00:49;;;;;;;18.90;13.77;;;;;;;11.32;76.72;95958.75;5060608;28;20124;-52
2021/10/28 17:03:17;;;;;;;16.92;14.55;;;;;;;11.29;76.77;95961.34;5063387;28;20106;-52
2021/10/28 17:05:45;;;;;;;17.98;14.30;;;;;;;11.21;76.93;95961.09;5063348;28;20104;-54
2021/10/28 17:08:12;;;;;;;17.23;13.43;;;;;;;11.05;77.37;95968.28;5065920;28;20097;-52
2021/10/28 17:10:39;;;;;;;16.77;13.27;;;;;;;11.04;77.41;95965.88;5066814;28;20055;-53
2021/10/28 17:13:06;;;;;;;17.38;14.55;;;;;;;10.87;78.11;95972.28;5069119;28;20040;-46
2021/10/28 17:15:33;;;;;;;19.52;13.95;;;;;;;10.74;78.39;95966.81;5060258;28;20045;-51
2021/10/28 17:18:00;;;;;;;18.02;13.93;;;;;;;10.78;78.55;95964.22;5064978;28;20592;-51
2021/10/28 17:20:34;;;;;;;18.90;14.32;;;;;;;10.65;79.02;95979.59;5064983;28;20044;-49
2021/10/28 17:23:02;;;;;;;16.90;13.20;;;;;;;10.80;78.13;95977.44;5068883;28;20047;-50
2021/10/28 17:25:32;;;;;;;19.10;14.68;;;;;;;10.65;78.66;95978.81;5070641;28;20051;-47
2021/10/28 17:27:59;;;;;;;18.42;14.70;;;;;;;10.76;77.72;95974.59;5056346;28;20072;-46
2021/10/28 17:30:26;;;;;;;18.23;14.98;;;;;;;10.89;77.17;95983.56;5069584;28;20044;-48
2021/10/28 17:32:55;;;;;;;17.75;13.93;;;;;;;10.77;77.08;95976.19;5069155;28;20048;-48
2021/10/28 17:35:23;;;;;;;19.33;15.07;;;;;;;10.80;77.11;95975.50;5068652;28;20123;-50
2021/10/28 17:37:50;;;;;;;16.90;14.25;;;;;;;10.67;77.30;95979.28;5053134;28;20413;-50
2021/10/28 17:40:17;;;;;;;21.05;15.95;;;;;;;10.74;77.11;95980.34;5061963;28;20128;-46
2021/10/28 17:42:44;;;;;;;19.83;15.07;;;;;;;10.42;78.44;95973.75;5062424;28;20053;-49
2021/10/28 17:45:13;;;;;;;19.58;16.30;;;;;;;10.44;78.12;95976.94;5072786;28;20124;-47
2021/10/28 17:47:40;;;;;;;16.65;14.10;;;;;;;10.34;78.08;95971.91;5058275;28;20120;-51
2021/10/28 17:50:12;;;;;;;22.23;15.13;;;;;;;10.37;77.71;95965.84;5070159;28;20044;-46
2021/10/28 17:52:41;;;;;;;18.95;14.43;;;;;;;10.20;78.30;95980.22;5065380;28;20040;-47
2021/10/28 17:55:09;;;;;;;18.48;14.48;;;;;;;9.95;79.54;95979.28;5069429;28;20040;-46
2021/10/28 17:57:38;;;;;;;21.50;16.80;;;;;;;10.15;78.03;95976.94;5073006;28;20041;-51
2021/10/28 18:00:06;;;;;;;19.63;16.10;;;;;;;10.01;78.20;95980.69;5066461;28;20041;-52
2021/10/28 18:02:34;;;;;;;19.95;15.57;;;;;;;9.94;78.23;95974.97;5054230;28;20094;-48
2021/10/28 18:05:03;;;;;;;19.33;15.68;;;;;;;10.18;77.50;95989.81;5068206;28;20064;-54
2021/10/28 18:07:30;;;;;;;19.52;15.82;;;;;;;10.12;77.08;95975.69;5074574;28;20068;-55
2021/10/28 18:09:58;;;;;;;21.58;16.20;;;;;;;10.25;76.20;95981.97;5066789;28;20525;-53
2021/10/28 18:12:27;;;;;;;19.42;15.32;;;;;;;9.86;77.83;95970.44;5054477;28;20068;-55
2021/10/28 18:14:55;;;;;;;21.10;16.52;;;;;;;10.14;76.11;95978.84;5067367;28;20048;-54
2021/10/28 18:17:22;;;;;;;22.88;16.30;;;;;;;10.06;76.38;95972.38;5073799;28;20501;-51
2021/10/28 18:19:49;;;;;;;22.05;16.77;;;;;;;10.21;75.41;95979.13;5071151;28;20044;-50
2021/10/28 18:22:17;;;;;;;22.15;16.88;;;;;;;10.25;75.26;95979.25;5073849;28;20173;-55
2021/10/28 18:24:44;;;;;;;19.48;15.68;;;;;;;10.00;76.48;95970.97;5073734;28;20052;-51
2021/10/28 18:27:11;;;;;;;23.05;16.63;;;;;;;10.15;75.98;95975.03;5072592;28;20075;-52
2021/10/28 18:29:38;;;;;;;23.42;16.70;;;;;;;10.18;75.39;95970.88;5073366;28;20048;-50
2021/10/28 18:32:08;;;;;;;23.38;16.73;;;;;;;9.91;76.12;95969.44;5065313;28;20555;-52
2021/10/28 18:34:36;;;;;;;20.15;15.48;;;;;;;9.71;76.87;95968.28;5073812;28;20043;-51
2021/10/28 18:37:04;;;;;;;22.20;16.08;;;;;;;10.03;75.12;95967.63;5073605;28;20040;-54
2021/10/28 18:39:31;;;;;;;22.08;16.23;;;;;;;10.04;74.62;95963.81;5072599;28;20055;-51
2021/10/28 18:41:59;;;;;;;21.00;16.67;;;;;;;9.83;75.19;95957.56;5063629;28;20044;-51
2021/10/28 18:44:26;;;;;;;20.98;16.35;;;;;;;9.88;74.33;95960.09;5073397;28;20127;-47
2021/10/28 18:46:55;;;;;;;21.33;16.92;;;;;;;9.68;74.81;95961.59;5073500;28;20068;-47
2021/10/28 18:49:23;;;;;;;22.00;17.00;;;;;;;9.68;75.04;95964.31;5069485;28;20147;-50
2021/10/28 18:51:50;;;;;;;20.58;16.13;;;;;;;9.52;75.89;95961.38;5072661;28;20040;-48
2021/10/28 18:54:17;;;;;;;19.63;15.85;;;;;;;9.40;76.61;95960.47;5073100;28;20056;-46
2021/10/28 18:56:46;;;;;;;23.48;17.13;;;;;;;9.51;75.17;95951.69;5073326;28;20084;-52
2021/10/28 18:59:17;;;;;;;22.17;16.55;;;;;;;9.13;76.23;95954.34;5072120;28;20131;-50
2021/10/28 19:01:50;;;;;;;22.73;17.00;;;;;;;8.95;77.79;95948.22;5062244;28;20040;-45
2021/10/28 19:04:18;;;;;;;22.25;16.20;;;;;;;9.20;76.94;95957.38;5073109;28;20068;-46
2021/10/28 19:06:46;;;;;;;26.98;19.05;;;;;;;9.38;75.79;95951.91;5073249;28;20090;-49
2021/10/28 19:09:15;;;;;;;22.77;16.55;;;;;;;9.25;75.91;95943.69;5072085;28;20414;-47
2021/10/28 19:11:42;;;;;;;20.83;15.88;;;;;;;9.25;76.26;95951.00;5072895;28;20040;-46
2021/10/28 19:14:09;;;;;;;21.88;16.52;;;;;;;9.31;75.93;95941.59;5072889;28;20052;-51
2021/10/28 19:16:36;;;;;;;19.90;15.60;;;;;;;9.24;76.09;95946.72;5072745;28;20055;-46
2021/10/28 19:19:03;;;;;;;21.55;16.25;;;;;;;9.33;75.87;95945.56;5055001;28;20049;-49
2021/10/28 19:21:31;;;;;;;21.83;17.02;;;;;;;9.26;76.06;95952.56;5052987;28;20045;-46
2021/10/28 19:23:58;;;;;;;23.83;17.35;;;;;;;9.42;75.33;95942.03;5052696;28;20048;-48
2021/10/28 19:26:25;;;;;;;31.63;17.92;;;;;;;9.53;74.78;95949.44;5055651;28;20036;-46
2021/10/28 19:28:53;;;;;;;23.88;18.30;;;;;;;9.38;75.26;95947.28;5072665;28;20044;-46
2021/10/28 19:31:24;;;;;;;20.40;15.65;;;;;;;9.06;76.38;95948.66;5059511;28;20135;-46
2021/10/28 19:33:54;;;;;;;23.35;17.23;;;;;;;9.19;76.52;95941.47;5072522;28;20075;-46
2021/10/28 19:39:02;;;;;;;20.02;16.33;;;;;;;9.17;76.25;95941.03;5072506;28;20527;-46
2021/10/28 19:41:37;;;;;;;20.45;15.75;;;;;;;8.64;78.35;95933.03;5055949;28;20032;-47
2021/10/28 19:46:50;;;;;;;25.52;16.80;;;;;;;8.84;77.91;95944.28;5072265;28;20037;-48
2021/10/28 19:49:17;;;;;;;21.15;15.75;;;;;;;8.64;77.96;95933.03;5065087;28;20045;-52
2021/10/28 19:51:44;;;;;;;20.17;15.68;;;;;;;8.68;78.80;95930.50;5061734;28;20439;-50
2021/10/28 19:54:13;;;;;;;27.73;15.85;;;;;;;8.89;77.86;95938.69;5071999;28;20055;-51
2021/10/28 19:56:42;;;;;;;21.02;15.82;;;;;;;8.94;77.25;95932.34;5072474;28;20043;-46
2021/10/28 19:59:13;;;;;;;20.85;15.98;;;;;;;8.94;77.15;95932.34;5070935;28;20037;-49
2021/10/28 20:01:53;;;;;;;20.65;15.90;;;;;;;8.80;77.78;95937.91;5062475;28;20048;-45
2021/10/28 20:20:35;;;;;;;21.40;15.27;;;;;;;9.00;76.70;95941.84;5025020;28;20052;-55
2021/10/28 20:23:03;;;;;;;19.92;15.25;;;;;;;8.89;77.18;95933.31;5070861;28;20128;-50
2021/10/28 20:25:30;;;;;;;18.50;14.23;;;;;;;8.91;76.79;95928.38;5072040;28;20136;-50
2021/10/28 20:28:05;;;;;;;19.15;14.73;;;;;;;8.86;76.70;95925.84;5070517;28;20139;-52
2021/10/28 20:30:39;;;;;;;18.42;14.80;;;;;;;8.87;76.82;95930.13;5053361;28;20075;-52
2021/10/28 20:33:06;;;;;;;20.92;15.40;;;;;;;8.83;76.88;95929.97;5070565;28;20080;-48
2021/10/28 20:38:27;;;;;;;20.27;15.02;;;;;;;8.82;76.97;95923.00;5040159;28;20132;-52
2021/10/28 20:40:54;;;;;;;20.92;15.25;;;;;;;8.76;77.02;95923.50;5051730;28;20049;-56
2021/10/28 20:43:21;;;;;;;28.30;15.68;;;;;;;8.64;77.30;95919.56;5070601;28;20037;-52
2021/10/28 20:45:52;;;;;;;29.83;14.93;;;;;;;8.66;77.32;95913.84;5071717;28;20094;-55
2021/10/28 20:48:20;;;;;;;25.75;15.38;;;;;;;8.70;77.40;95912.06;5069760;28;20036;-51